sensor_id;sensor_type;location;lat;lon;timestamp;temperature;humidity
42227;DHT22;27892;52.378;13.122;2023-04-25T00:02:17;13.40;50.20
42227;DHT22;27892;52.378;13.122;2023-04-25T00:04:43;13.40;50.00
42227;DHT22;27892;52.378;13.122;2023-04-25T00:07:09;13.40;49.90
42227;DHT22;27892;52.378;13.122;2023-04-25T00:09:35;13.50;50.10
42227;DHT22;27892;52.378;13.122;2023-04-25T00:12:01;13.40;50.10
42227;DHT22;27892;52.378;13.122;2023-04-25T00:14:27;13.50;50.40
42227;DHT22;27892;52.378;13.122;2023-04-25T00:16:56;13.50;50.40
42227;DHT22;27892;52.378;13.122;2023-04-25T00:19:21;13.50;50.40
42227;DHT22;27892;52.378;13.122;2023-04-25T00:21:47;13.40;50.40
42227;DHT22;27892;52.378;13.122;2023-04-25T00:24:13;13.50;50.70
42227;DHT22;27892;52.378;13.122;2023-04-25T00:26:39;13.40;50.90
42227;DHT22;27892;52.378;13.122;2023-04-25T00:29:05;13.40;50.90
42227;DHT22;27892;52.378;13.122;2023-04-25T00:31:30;13.40;51.00
42227;DHT22;27892;52.378;13.122;2023-04-25T00:33:56;13.40;51.10
42227;DHT22;27892;52.378;13.122;2023-04-25T00:36:22;13.40;51.00
42227;DHT22;27892;52.378;13.122;2023-04-25T00:38:47;13.40;51.30
42227;DHT22;27892;52.378;13.122;2023-04-25T00:41:13;13.40;51.40
42227;DHT22;27892;52.378;13.122;2023-04-25T00:43:40;13.50;51.20
42227;DHT22;27892;52.378;13.122;2023-04-25T00:46:05;13.40;50.80
42227;DHT22;27892;52.378;13.122;2023-04-25T00:48:31;13.40;51.00
42227;DHT22;27892;52.378;13.122;2023-04-25T00:50:58;13.40;50.90
42227;DHT22;27892;52.378;13.122;2023-04-25T00:53:26;13.30;51.50
42227;DHT22;27892;52.378;13.122;2023-04-25T00:55:52;13.30;50.90
42227;DHT22;27892;52.378;13.122;2023-04-25T00:58:19;13.40;50.90
42227;DHT22;27892;52.378;13.122;2023-04-25T01:00:46;13.40;51.10
42227;DHT22;27892;52.378;13.122;2023-04-25T01:03:13;13.40;51.00
42227;DHT22;27892;52.378;13.122;2023-04-25T01:05:41;13.30;51.10
42227;DHT22;27892;52.378;13.122;2023-04-25T01:08:08;13.40;51.30
42227;DHT22;27892;52.378;13.122;2023-04-25T01:10:33;13.40;51.00
42227;DHT22;27892;52.378;13.122;2023-04-25T01:12:59;13.40;51.10
42227;DHT22;27892;52.378;13.122;2023-04-25T01:15:25;13.40;51.20
42227;DHT22;27892;52.378;13.122;2023-04-25T01:17:51;13.40;51.20
42227;DHT22;27892;52.378;13.122;2023-04-25T01:20:16;13.40;51.20
42227;DHT22;27892;52.378;13.122;2023-04-25T01:22:43;13.40;51.30
42227;DHT22;27892;52.378;13.122;2023-04-25T01:25:09;13.40;51.30
42227;DHT22;27892;52.378;13.122;2023-04-25T01:27:36;13.40;50.90
42227;DHT22;27892;52.378;13.122;2023-04-25T01:30:02;13.30;50.90
42227;DHT22;27892;52.378;13.122;2023-04-25T01:32:28;13.30;50.90
42227;DHT22;27892;52.378;13.122;2023-04-25T01:34:54;13.20;50.90
42227;DHT22;27892;52.378;13.122;2023-04-25T01:37:20;13.10;50.90
42227;DHT22;27892;52.378;13.122;2023-04-25T01:39:46;13.10;51.30
42227;DHT22;27892;52.378;13.122;2023-04-25T01:42:12;13.10;51.40
42227;DHT22;27892;52.378;13.122;2023-04-25T01:44:38;13.10;51.00
42227;DHT22;27892;52.378;13.122;2023-04-25T01:47:04;13.10;51.10
42227;DHT22;27892;52.378;13.122;2023-04-25T01:49:29;13.00;51.20
42227;DHT22;27892;52.378;13.122;2023-04-25T01:51:55;13.00;51.30
42227;DHT22;27892;52.378;13.122;2023-04-25T01:54:21;13.00;51.50
42227;DHT22;27892;52.378;13.122;2023-04-25T01:56:50;13.00;51.50
42227;DHT22;27892;52.378;13.122;2023-04-25T01:59:17;13.00;51.10
42227;DHT22;27892;52.378;13.122;2023-04-25T02:01:43;13.00;51.80
42227;DHT22;27892;52.378;13.122;2023-04-25T02:04:09;13.00;51.40
42227;DHT22;27892;52.378;13.122;2023-04-25T02:06:34;13.00;51.30
42227;DHT22;27892;52.378;13.122;2023-04-25T02:09:00;13.00;51.40
42227;DHT22;27892;52.378;13.122;2023-04-25T02:11:26;12.90;51.20
42227;DHT22;27892;52.378;13.122;2023-04-25T02:13:51;12.90;51.50
42227;DHT22;27892;52.378;13.122;2023-04-25T02:16:18;12.90;51.20
42227;DHT22;27892;52.378;13.122;2023-04-25T02:18:44;12.90;51.40
42227;DHT22;27892;52.378;13.122;2023-04-25T02:21:10;12.90;51.40
42227;DHT22;27892;52.378;13.122;2023-04-25T02:23:37;12.90;52.30
42227;DHT22;27892;52.378;13.122;2023-04-25T02:26:03;13.00;52.10
42227;DHT22;27892;52.378;13.122;2023-04-25T02:28:28;13.00;51.20
42227;DHT22;27892;52.378;13.122;2023-04-25T02:30:54;12.90;51.40
42227;DHT22;27892;52.378;13.122;2023-04-25T02:33:20;12.90;52.20
42227;DHT22;27892;52.378;13.122;2023-04-25T02:35:46;12.90;51.60
42227;DHT22;27892;52.378;13.122;2023-04-25T02:38:12;12.90;51.70
42227;DHT22;27892;52.378;13.122;2023-04-25T02:40:38;12.90;51.60
42227;DHT22;27892;52.378;13.122;2023-04-25T02:43:03;12.90;51.80
42227;DHT22;27892;52.378;13.122;2023-04-25T02:45:29;12.80;51.80
42227;DHT22;27892;52.378;13.122;2023-04-25T02:47:55;12.80;52.00
42227;DHT22;27892;52.378;13.122;2023-04-25T02:50:20;12.90;52.00
42227;DHT22;27892;52.378;13.122;2023-04-25T02:52:46;12.90;52.00
42227;DHT22;27892;52.378;13.122;2023-04-25T02:55:13;12.90;52.10
42227;DHT22;27892;52.378;13.122;2023-04-25T02:57:39;12.90;51.60
42227;DHT22;27892;52.378;13.122;2023-04-25T03:00:05;12.90;51.80
42227;DHT22;27892;52.378;13.122;2023-04-25T03:02:31;12.90;51.90
42227;DHT22;27892;52.378;13.122;2023-04-25T03:04:56;12.90;51.90
42227;DHT22;27892;52.378;13.122;2023-04-25T03:07:22;12.90;51.70
42227;DHT22;27892;52.378;13.122;2023-04-25T03:09:48;13.00;52.00
42227;DHT22;27892;52.378;13.122;2023-04-25T03:12:13;13.00;51.60
42227;DHT22;27892;52.378;13.122;2023-04-25T03:14:39;13.00;52.00
42227;DHT22;27892;52.378;13.122;2023-04-25T03:17:05;12.90;51.70
42227;DHT22;27892;52.378;13.122;2023-04-25T03:19:31;12.90;51.60
42227;DHT22;27892;52.378;13.122;2023-04-25T03:21:57;12.80;51.80
42227;DHT22;27892;52.378;13.122;2023-04-25T03:24:22;12.90;52.00
42227;DHT22;27892;52.378;13.122;2023-04-25T03:26:48;12.80;51.90
42227;DHT22;27892;52.378;13.122;2023-04-25T03:29:14;12.80;52.20
42227;DHT22;27892;52.378;13.122;2023-04-25T03:31:39;12.80;52.30
42227;DHT22;27892;52.378;13.122;2023-04-25T03:34:05;12.80;52.40
42227;DHT22;27892;52.378;13.122;2023-04-25T03:36:31;12.80;52.20
42227;DHT22;27892;52.378;13.122;2023-04-25T03:38:58;12.70;52.40
42227;DHT22;27892;52.378;13.122;2023-04-25T03:41:23;12.80;52.50
42227;DHT22;27892;52.378;13.122;2023-04-25T03:43:49;12.70;52.20
42227;DHT22;27892;52.378;13.122;2023-04-25T03:46:15;12.70;52.40
42227;DHT22;27892;52.378;13.122;2023-04-25T03:48:40;12.70;52.40
42227;DHT22;27892;52.378;13.122;2023-04-25T03:51:06;12.70;52.40
42227;DHT22;27892;52.378;13.122;2023-04-25T03:53:31;12.70;52.50
42227;DHT22;27892;52.378;13.122;2023-04-25T03:55:57;12.70;53.30
42227;DHT22;27892;52.378;13.122;2023-04-25T03:58:23;12.70;52.40
42227;DHT22;27892;52.378;13.122;2023-04-25T04:00:49;12.60;52.30
42227;DHT22;27892;52.378;13.122;2023-04-25T04:03:15;12.50;52.60
42227;DHT22;27892;52.378;13.122;2023-04-25T04:05:41;12.50;53.00
42227;DHT22;27892;52.378;13.122;2023-04-25T04:08:06;12.50;53.10
42227;DHT22;27892;52.378;13.122;2023-04-25T04:10:32;12.60;53.10
42227;DHT22;27892;52.378;13.122;2023-04-25T04:12:58;12.60;52.90
42227;DHT22;27892;52.378;13.122;2023-04-25T04:15:23;12.60;52.90
42227;DHT22;27892;52.378;13.122;2023-04-25T04:17:49;12.70;53.00
42227;DHT22;27892;52.378;13.122;2023-04-25T04:20:15;12.70;52.70
42227;DHT22;27892;52.378;13.122;2023-04-25T04:22:40;12.70;53.20
42227;DHT22;27892;52.378;13.122;2023-04-25T04:25:06;12.70;53.40
42227;DHT22;27892;52.378;13.122;2023-04-25T04:27:32;12.70;53.10
42227;DHT22;27892;52.378;13.122;2023-04-25T04:29:58;12.70;53.50
42227;DHT22;27892;52.378;13.122;2023-04-25T04:32:24;12.80;53.40
42227;DHT22;27892;52.378;13.122;2023-04-25T04:34:50;12.80;53.20
42227;DHT22;27892;52.378;13.122;2023-04-25T04:37:17;12.80;53.20
42227;DHT22;27892;52.378;13.122;2023-04-25T04:39:44;12.80;53.10
42227;DHT22;27892;52.378;13.122;2023-04-25T04:42:10;12.90;53.00
42227;DHT22;27892;52.378;13.122;2023-04-25T04:44:36;12.90;53.30
42227;DHT22;27892;52.378;13.122;2023-04-25T04:47:04;12.90;53.20
42227;DHT22;27892;52.378;13.122;2023-04-25T04:49:32;12.90;53.40
42227;DHT22;27892;52.378;13.122;2023-04-25T04:51:57;12.90;53.20
42227;DHT22;27892;52.378;13.122;2023-04-25T04:54:25;12.90;53.50
42227;DHT22;27892;52.378;13.122;2023-04-25T04:56:51;12.90;53.40
42227;DHT22;27892;52.378;13.122;2023-04-25T04:59:17;12.90;53.70
42227;DHT22;27892;52.378;13.122;2023-04-25T05:01:43;13.00;53.50
42227;DHT22;27892;52.378;13.122;2023-04-25T05:04:09;13.00;53.40
42227;DHT22;27892;52.378;13.122;2023-04-25T05:06:34;13.00;53.50
42227;DHT22;27892;52.378;13.122;2023-04-25T05:09:00;13.00;53.70
42227;DHT22;27892;52.378;13.122;2023-04-25T05:11:26;13.10;53.50
42227;DHT22;27892;52.378;13.122;2023-04-25T05:13:52;13.10;53.70
42227;DHT22;27892;52.378;13.122;2023-04-25T05:16:18;13.10;53.60
42227;DHT22;27892;52.378;13.122;2023-04-25T05:18:44;13.10;53.50
42227;DHT22;27892;52.378;13.122;2023-04-25T05:21:10;13.20;53.90
42227;DHT22;27892;52.378;13.122;2023-04-25T05:23:35;13.20;53.80
42227;DHT22;27892;52.378;13.122;2023-04-25T05:26:01;13.30;53.80
42227;DHT22;27892;52.378;13.122;2023-04-25T05:28:27;13.20;53.50
42227;DHT22;27892;52.378;13.122;2023-04-25T05:30:52;13.20;53.50
42227;DHT22;27892;52.378;13.122;2023-04-25T05:33:18;13.30;53.90
42227;DHT22;27892;52.378;13.122;2023-04-25T05:35:44;13.30;53.80
42227;DHT22;27892;52.378;13.122;2023-04-25T05:38:10;13.40;53.30
42227;DHT22;27892;52.378;13.122;2023-04-25T05:40:36;13.30;53.20
42227;DHT22;27892;52.378;13.122;2023-04-25T05:43:02;13.40;53.40
42227;DHT22;27892;52.378;13.122;2023-04-25T05:45:28;13.40;53.60
42227;DHT22;27892;52.378;13.122;2023-04-25T05:47:53;13.40;53.80
42227;DHT22;27892;52.378;13.122;2023-04-25T05:50:19;13.70;53.50
42227;DHT22;27892;52.378;13.122;2023-04-25T05:52:45;13.80;53.50
42227;DHT22;27892;52.378;13.122;2023-04-25T05:55:10;14.00;52.90
42227;DHT22;27892;52.378;13.122;2023-04-25T05:57:36;14.20;52.40
42227;DHT22;27892;52.378;13.122;2023-04-25T06:00:02;14.30;52.80
42227;DHT22;27892;52.378;13.122;2023-04-25T06:02:28;14.20;51.90
42227;DHT22;27892;52.378;13.122;2023-04-25T06:04:54;14.20;52.10
42227;DHT22;27892;52.378;13.122;2023-04-25T06:07:20;14.30;52.40
42227;DHT22;27892;52.378;13.122;2023-04-25T06:09:45;14.30;52.10
42227;DHT22;27892;52.378;13.122;2023-04-25T06:12:11;14.30;51.90
42227;DHT22;27892;52.378;13.122;2023-04-25T06:14:38;14.20;51.90
42227;DHT22;27892;52.378;13.122;2023-04-25T06:17:04;14.10;51.70
42227;DHT22;27892;52.378;13.122;2023-04-25T06:19:34;14.10;52.20
42227;DHT22;27892;52.378;13.122;2023-04-25T06:22:01;14.10;52.40
42227;DHT22;27892;52.378;13.122;2023-04-25T06:24:27;14.10;52.30
42227;DHT22;27892;52.378;13.122;2023-04-25T06:26:52;14.00;52.00
42227;DHT22;27892;52.378;13.122;2023-04-25T06:29:18;14.00;51.90
42227;DHT22;27892;52.378;13.122;2023-04-25T06:31:44;13.90;52.10
42227;DHT22;27892;52.378;13.122;2023-04-25T06:34:10;14.00;52.20
42227;DHT22;27892;52.378;13.122;2023-04-25T06:36:36;14.00;52.10
42227;DHT22;27892;52.378;13.122;2023-04-25T06:39:01;14.10;52.40
42227;DHT22;27892;52.378;13.122;2023-04-25T06:41:27;14.10;52.40
42227;DHT22;27892;52.378;13.122;2023-04-25T06:43:53;14.10;52.00
42227;DHT22;27892;52.378;13.122;2023-04-25T06:46:19;14.00;52.00
42227;DHT22;27892;52.378;13.122;2023-04-25T06:48:44;14.00;52.10
42227;DHT22;27892;52.378;13.122;2023-04-25T06:51:10;13.90;52.50
42227;DHT22;27892;52.378;13.122;2023-04-25T06:53:36;13.80;52.40
42227;DHT22;27892;52.378;13.122;2023-04-25T06:56:02;13.70;52.60
42227;DHT22;27892;52.378;13.122;2023-04-25T06:58:28;13.70;52.90
42227;DHT22;27892;52.378;13.122;2023-04-25T07:00:54;13.70;53.20
42227;DHT22;27892;52.378;13.122;2023-04-25T07:03:20;13.70;52.90
42227;DHT22;27892;52.378;13.122;2023-04-25T07:05:46;13.70;53.00
42227;DHT22;27892;52.378;13.122;2023-04-25T07:08:11;13.50;53.10
42227;DHT22;27892;52.378;13.122;2023-04-25T07:10:37;13.40;53.60
42227;DHT22;27892;52.378;13.122;2023-04-25T07:13:03;13.40;53.70
42227;DHT22;27892;52.378;13.122;2023-04-25T07:15:29;13.20;53.50
42227;DHT22;27892;52.378;13.122;2023-04-25T07:17:55;13.20;53.60
42227;DHT22;27892;52.378;13.122;2023-04-25T07:20:20;13.10;53.70
42227;DHT22;27892;52.378;13.122;2023-04-25T07:22:46;13.10;54.00
42227;DHT22;27892;52.378;13.122;2023-04-25T07:25:12;13.20;54.50
42227;DHT22;27892;52.378;13.122;2023-04-25T07:27:38;13.20;53.90
42227;DHT22;27892;52.378;13.122;2023-04-25T07:30:05;13.20;53.80
42227;DHT22;27892;52.378;13.122;2023-04-25T07:32:30;13.30;53.70
42227;DHT22;27892;52.378;13.122;2023-04-25T07:34:56;13.30;53.30
42227;DHT22;27892;52.378;13.122;2023-04-25T07:37:22;13.30;54.00
42227;DHT22;27892;52.378;13.122;2023-04-25T07:39:48;13.40;52.90
42227;DHT22;27892;52.378;13.122;2023-04-25T07:42:14;13.30;52.50
42227;DHT22;27892;52.378;13.122;2023-04-25T07:44:40;13.30;52.60
42227;DHT22;27892;52.378;13.122;2023-04-25T07:47:06;13.40;52.80
42227;DHT22;27892;52.378;13.122;2023-04-25T07:49:36;13.60;52.80
42227;DHT22;27892;52.378;13.122;2023-04-25T07:52:03;13.70;51.90
42227;DHT22;27892;52.378;13.122;2023-04-25T07:54:29;13.60;51.60
42227;DHT22;27892;52.378;13.122;2023-04-25T07:56:55;13.60;51.80
42227;DHT22;27892;52.378;13.122;2023-04-25T07:59:21;13.60;51.80
42227;DHT22;27892;52.378;13.122;2023-04-25T08:01:47;13.60;51.60
42227;DHT22;27892;52.378;13.122;2023-04-25T08:04:13;13.60;52.20
42227;DHT22;27892;52.378;13.122;2023-04-25T08:06:38;13.70;52.50
42227;DHT22;27892;52.378;13.122;2023-04-25T08:09:06;13.80;52.40
42227;DHT22;27892;52.378;13.122;2023-04-25T08:11:31;13.80;52.30
42227;DHT22;27892;52.378;13.122;2023-04-25T08:13:57;13.90;52.40
42227;DHT22;27892;52.378;13.122;2023-04-25T08:16:23;14.00;52.30
42227;DHT22;27892;52.378;13.122;2023-04-25T08:18:50;14.30;52.50
42227;DHT22;27892;52.378;13.122;2023-04-25T08:21:15;14.70;51.40
42227;DHT22;27892;52.378;13.122;2023-04-25T08:23:41;14.80;50.10
42227;DHT22;27892;52.378;13.122;2023-04-25T08:26:07;14.90;50.10
42227;DHT22;27892;52.378;13.122;2023-04-25T08:28:33;14.80;49.90
42227;DHT22;27892;52.378;13.122;2023-04-25T08:30:59;14.80;50.00
42227;DHT22;27892;52.378;13.122;2023-04-25T08:33:25;14.80;49.90
42227;DHT22;27892;52.378;13.122;2023-04-25T08:35:50;14.80;49.50
42227;DHT22;27892;52.378;13.122;2023-04-25T08:38:17;14.70;48.30
42227;DHT22;27892;52.378;13.122;2023-04-25T08:40:43;14.70;49.10
42227;DHT22;27892;52.378;13.122;2023-04-25T08:43:09;14.80;48.30
42227;DHT22;27892;52.378;13.122;2023-04-25T08:45:41;15.00;48.90
42227;DHT22;27892;52.378;13.122;2023-04-25T08:48:11;15.00;48.00
42227;DHT22;27892;52.378;13.122;2023-04-25T08:51:01;15.00;47.30
42227;DHT22;27892;52.378;13.122;2023-04-25T08:53:27;15.10;46.30
42227;DHT22;27892;52.378;13.122;2023-04-25T08:55:57;15.50;46.40
42227;DHT22;27892;52.378;13.122;2023-04-25T08:58:23;16.20;44.70
42227;DHT22;27892;52.378;13.122;2023-04-25T09:00:50;16.60;42.70
42227;DHT22;27892;52.378;13.122;2023-04-25T09:03:17;17.20;40.20
42227;DHT22;27892;52.378;13.122;2023-04-25T09:05:43;17.70;39.70
42227;DHT22;27892;52.378;13.122;2023-04-25T09:08:09;18.10;38.60
42227;DHT22;27892;52.378;13.122;2023-04-25T09:10:35;18.30;38.00
42227;DHT22;27892;52.378;13.122;2023-04-25T09:13:13;18.50;38.00
42227;DHT22;27892;52.378;13.122;2023-04-25T09:18:13;19.10;35.10
42227;DHT22;27892;52.378;13.122;2023-04-25T09:20:43;18.90;35.10
42227;DHT22;27892;52.378;13.122;2023-04-25T09:23:09;18.80;35.30
42227;DHT22;27892;52.378;13.122;2023-04-25T09:25:36;18.80;35.70
42227;DHT22;27892;52.378;13.122;2023-04-25T09:28:05;18.80;34.50
42227;DHT22;27892;52.378;13.122;2023-04-25T09:30:33;18.50;35.50
42227;DHT22;27892;52.378;13.122;2023-04-25T09:33:06;19.20;37.20
42227;DHT22;27892;52.378;13.122;2023-04-25T09:35:42;19.90;36.20
42227;DHT22;27892;52.378;13.122;2023-04-25T09:38:12;20.40;33.90
42227;DHT22;27892;52.378;13.122;2023-04-25T09:40:45;20.60;32.30
42227;DHT22;27892;52.378;13.122;2023-04-25T09:43:22;20.30;30.90
42227;DHT22;27892;52.378;13.122;2023-04-25T09:45:48;19.80;32.20
42227;DHT22;27892;52.378;13.122;2023-04-25T09:48:21;19.30;32.20
42227;DHT22;27892;52.378;13.122;2023-04-25T09:51:13;18.90;32.90
42227;DHT22;27892;52.378;13.122;2023-04-25T09:53:44;19.30;34.80
42227;DHT22;27892;52.378;13.122;2023-04-25T09:56:11;20.00;32.90
42227;DHT22;27892;52.378;13.122;2023-04-25T09:58:39;20.50;32.50
42227;DHT22;27892;52.378;13.122;2023-04-25T10:01:08;20.70;31.50
42227;DHT22;27892;52.378;13.122;2023-04-25T10:03:36;20.40;30.50
42227;DHT22;27892;52.378;13.122;2023-04-25T10:06:03;19.90;30.80
42227;DHT22;27892;52.378;13.122;2023-04-25T10:08:33;19.30;30.60
42227;DHT22;27892;52.378;13.122;2023-04-25T10:11:07;19.00;32.30
42227;DHT22;27892;52.378;13.122;2023-04-25T10:13:34;18.90;31.40
42227;DHT22;27892;52.378;13.122;2023-04-25T10:16:03;18.40;31.80
42227;DHT22;27892;52.378;13.122;2023-04-25T10:18:30;18.10;33.10
42227;DHT22;27892;52.378;13.122;2023-04-25T10:21:00;17.80;32.60
42227;DHT22;27892;52.378;13.122;2023-04-25T10:23:27;17.50;33.10
42227;DHT22;27892;52.378;13.122;2023-04-25T10:25:55;17.60;32.90
42227;DHT22;27892;52.378;13.122;2023-04-25T10:28:21;17.70;33.30
42227;DHT22;27892;52.378;13.122;2023-04-25T10:31:08;17.60;32.60
42227;DHT22;27892;52.378;13.122;2023-04-25T10:33:37;17.60;32.50
42227;DHT22;27892;52.378;13.122;2023-04-25T10:36:20;17.50;32.80
42227;DHT22;27892;52.378;13.122;2023-04-25T10:38:50;17.40;32.40
42227;DHT22;27892;52.378;13.122;2023-04-25T10:41:20;16.90;32.50
42227;DHT22;27892;52.378;13.122;2023-04-25T10:43:48;16.80;33.10
42227;DHT22;27892;52.378;13.122;2023-04-25T10:46:19;16.70;33.10
42227;DHT22;27892;52.378;13.122;2023-04-25T10:48:53;16.60;33.50
42227;DHT22;27892;52.378;13.122;2023-04-25T10:51:26;16.50;34.40
42227;DHT22;27892;52.378;13.122;2023-04-25T10:56:24;16.60;34.40
42227;DHT22;27892;52.378;13.122;2023-04-25T10:58:50;16.60;33.60
42227;DHT22;27892;52.378;13.122;2023-04-25T11:01:20;16.50;34.30
42227;DHT22;27892;52.378;13.122;2023-04-25T11:03:47;16.30;33.20
42227;DHT22;27892;52.378;13.122;2023-04-25T11:06:31;16.10;33.70
42227;DHT22;27892;52.378;13.122;2023-04-25T11:09:01;16.10;34.40
42227;DHT22;27892;52.378;13.122;2023-04-25T11:11:28;16.10;34.20
42227;DHT22;27892;52.378;13.122;2023-04-25T11:13:54;16.20;33.70
42227;DHT22;27892;52.378;13.122;2023-04-25T11:16:24;16.10;33.50
42227;DHT22;27892;52.378;13.122;2023-04-25T11:18:50;16.10;34.90
42227;DHT22;27892;52.378;13.122;2023-04-25T11:21:16;16.10;34.30
42227;DHT22;27892;52.378;13.122;2023-04-25T11:23:45;15.90;33.60
42227;DHT22;27892;52.378;13.122;2023-04-25T11:26:12;15.70;33.90
42227;DHT22;27892;52.378;13.122;2023-04-25T11:28:38;15.40;34.50
42227;DHT22;27892;52.378;13.122;2023-04-25T11:31:04;15.20;36.20
42227;DHT22;27892;52.378;13.122;2023-04-25T11:33:30;15.20;35.20
42227;DHT22;27892;52.378;13.122;2023-04-25T11:35:56;15.10;34.30
42227;DHT22;27892;52.378;13.122;2023-04-25T11:38:22;15.00;33.90
42227;DHT22;27892;52.378;13.122;2023-04-25T11:40:51;15.10;34.30
42227;DHT22;27892;52.378;13.122;2023-04-25T11:43:18;15.30;34.50
42227;DHT22;27892;52.378;13.122;2023-04-25T11:45:49;15.40;33.90
42227;DHT22;27892;52.378;13.122;2023-04-25T11:48:16;15.30;34.00
42227;DHT22;27892;52.378;13.122;2023-04-25T11:50:41;15.20;33.90
42227;DHT22;27892;52.378;13.122;2023-04-25T11:53:07;15.30;33.50
42227;DHT22;27892;52.378;13.122;2023-04-25T11:55:34;15.30;33.70
42227;DHT22;27892;52.378;13.122;2023-04-25T11:58:00;15.40;33.70
42227;DHT22;27892;52.378;13.122;2023-04-25T12:00:27;15.30;33.80
42227;DHT22;27892;52.378;13.122;2023-04-25T12:02:55;15.40;33.40
42227;DHT22;27892;52.378;13.122;2023-04-25T12:05:24;15.40;32.00
42227;DHT22;27892;52.378;13.122;2023-04-25T12:07:50;15.40;32.70
42227;DHT22;27892;52.378;13.122;2023-04-25T12:10:17;15.40;32.30
42227;DHT22;27892;52.378;13.122;2023-04-25T12:12:45;15.30;31.20
42227;DHT22;27892;52.378;13.122;2023-04-25T12:15:18;15.40;31.60
42227;DHT22;27892;52.378;13.122;2023-04-25T12:17:49;15.60;32.10
42227;DHT22;27892;52.378;13.122;2023-04-25T12:20:18;15.80;31.50
42227;DHT22;27892;52.378;13.122;2023-04-25T12:22:46;15.90;31.90
42227;DHT22;27892;52.378;13.122;2023-04-25T12:25:34;16.00;32.30
42227;DHT22;27892;52.378;13.122;2023-04-25T12:28:17;16.40;32.60
42227;DHT22;27892;52.378;13.122;2023-04-25T12:31:11;16.90;31.20
42227;DHT22;27892;52.378;13.122;2023-04-25T12:33:37;17.30;30.80
42227;DHT22;27892;52.378;13.122;2023-04-25T12:36:05;17.20;29.90
42227;DHT22;27892;52.378;13.122;2023-04-25T12:38:40;16.90;30.00
42227;DHT22;27892;52.378;13.122;2023-04-25T12:41:07;16.70;29.90
42227;DHT22;27892;52.378;13.122;2023-04-25T12:43:33;16.30;30.00
42227;DHT22;27892;52.378;13.122;2023-04-25T12:45:58;16.20;30.30
42227;DHT22;27892;52.378;13.122;2023-04-25T12:48:24;16.00;30.70
42227;DHT22;27892;52.378;13.122;2023-04-25T12:50:51;16.00;30.60
42227;DHT22;27892;52.378;13.122;2023-04-25T12:53:22;15.90;31.40
42227;DHT22;27892;52.378;13.122;2023-04-25T12:55:48;15.80;31.60
42227;DHT22;27892;52.378;13.122;2023-04-25T12:58:18;15.80;31.80
42227;DHT22;27892;52.378;13.122;2023-04-25T13:00:45;15.70;32.60
42227;DHT22;27892;52.378;13.122;2023-04-25T13:03:10;15.90;33.20
42227;DHT22;27892;52.378;13.122;2023-04-25T13:05:37;16.00;32.60
42227;DHT22;27892;52.378;13.122;2023-04-25T13:08:03;16.00;32.70
42227;DHT22;27892;52.378;13.122;2023-04-25T13:10:29;16.00;32.20
42227;DHT22;27892;52.378;13.122;2023-04-25T13:12:55;16.00;32.70
42227;DHT22;27892;52.378;13.122;2023-04-25T13:15:21;16.00;32.40
42227;DHT22;27892;52.378;13.122;2023-04-25T13:17:47;16.10;32.60
42227;DHT22;27892;52.378;13.122;2023-04-25T13:20:13;16.20;32.20
42227;DHT22;27892;52.378;13.122;2023-04-25T13:22:40;16.50;32.60
42227;DHT22;27892;52.378;13.122;2023-04-25T13:25:07;17.10;33.00
42227;DHT22;27892;52.378;13.122;2023-04-25T13:27:34;17.70;32.10
42227;DHT22;27892;52.378;13.122;2023-04-25T13:30:01;18.10;31.60
42227;DHT22;27892;52.378;13.122;2023-04-25T13:32:33;18.50;30.00
42227;DHT22;27892;52.378;13.122;2023-04-25T13:34:59;18.50;29.40
42227;DHT22;27892;52.378;13.122;2023-04-25T13:37:24;18.00;30.00
42227;DHT22;27892;52.378;13.122;2023-04-25T13:39:50;17.30;29.90
42227;DHT22;27892;52.378;13.122;2023-04-25T13:42:16;16.90;31.50
42227;DHT22;27892;52.378;13.122;2023-04-25T13:44:42;16.70;31.50
42227;DHT22;27892;52.378;13.122;2023-04-25T13:47:07;16.60;32.40
42227;DHT22;27892;52.378;13.122;2023-04-25T13:49:33;16.50;31.30
42227;DHT22;27892;52.378;13.122;2023-04-25T13:51:59;16.30;31.20
42227;DHT22;27892;52.378;13.122;2023-04-25T13:54:25;16.00;31.50
42227;DHT22;27892;52.378;13.122;2023-04-25T13:56:51;15.80;32.00
42227;DHT22;27892;52.378;13.122;2023-04-25T13:59:17;15.70;32.00
42227;DHT22;27892;52.378;13.122;2023-04-25T14:01:43;15.50;32.00
42227;DHT22;27892;52.378;13.122;2023-04-25T14:04:08;15.30;33.00
42227;DHT22;27892;52.378;13.122;2023-04-25T14:06:34;15.10;32.50
42227;DHT22;27892;52.378;13.122;2023-04-25T14:09:00;15.00;32.90
42227;DHT22;27892;52.378;13.122;2023-04-25T14:11:26;14.60;33.70
42227;DHT22;27892;52.378;13.122;2023-04-25T14:13:52;14.60;33.90
42227;DHT22;27892;52.378;13.122;2023-04-25T14:16:17;14.50;34.30
42227;DHT22;27892;52.378;13.122;2023-04-25T14:18:43;14.40;34.40
42227;DHT22;27892;52.378;13.122;2023-04-25T14:21:09;14.30;34.80
42227;DHT22;27892;52.378;13.122;2023-04-25T14:23:35;14.30;35.20
42227;DHT22;27892;52.378;13.122;2023-04-25T14:26:01;14.30;35.80
42227;DHT22;27892;52.378;13.122;2023-04-25T14:28:27;14.40;35.90
42227;DHT22;27892;52.378;13.122;2023-04-25T14:30:53;14.50;36.70
42227;DHT22;27892;52.378;13.122;2023-04-25T14:33:18;14.50;36.60
42227;DHT22;27892;52.378;13.122;2023-04-25T14:35:44;14.60;36.70
42227;DHT22;27892;52.378;13.122;2023-04-25T14:38:10;14.70;37.10
42227;DHT22;27892;52.378;13.122;2023-04-25T14:40:35;14.80;36.70
42227;DHT22;27892;52.378;13.122;2023-04-25T14:43:02;14.90;36.40
42227;DHT22;27892;52.378;13.122;2023-04-25T14:45:27;15.10;37.00
42227;DHT22;27892;52.378;13.122;2023-04-25T14:47:53;15.40;37.50
42227;DHT22;27892;52.378;13.122;2023-04-25T14:50:19;15.50;36.40
42227;DHT22;27892;52.378;13.122;2023-04-25T14:52:45;15.50;34.90
42227;DHT22;27892;52.378;13.122;2023-04-25T14:55:11;15.50;35.00
42227;DHT22;27892;52.378;13.122;2023-04-25T14:57:37;15.30;34.70
42227;DHT22;27892;52.378;13.122;2023-04-25T15:00:05;15.10;35.20
42227;DHT22;27892;52.378;13.122;2023-04-25T15:02:35;15.00;35.50
42227;DHT22;27892;52.378;13.122;2023-04-25T15:05:01;14.90;35.50
42227;DHT22;27892;52.378;13.122;2023-04-25T15:07:27;14.80;35.80
42227;DHT22;27892;52.378;13.122;2023-04-25T15:09:52;14.80;36.20
42227;DHT22;27892;52.378;13.122;2023-04-25T15:12:19;14.80;36.80
42227;DHT22;27892;52.378;13.122;2023-04-25T15:14:45;14.80;36.70
42227;DHT22;27892;52.378;13.122;2023-04-25T15:17:10;14.90;36.60
42227;DHT22;27892;52.378;13.122;2023-04-25T15:19:39;14.90;36.40